createdAt,value
2022-11-24T00:01:28.099Z,5.90
2022-11-24T00:04:00.558Z,5.90
2022-11-24T00:06:29.204Z,5.90
2022-11-24T00:08:57.562Z,5.90
2022-11-24T00:11:28.832Z,5.90
2022-11-24T00:13:57.353Z,5.90
2022-11-24T00:16:30.943Z,5.90
2022-11-24T00:19:00.568Z,5.90
2022-11-24T00:21:30.907Z,5.90
2022-11-24T00:23:58.510Z,5.90
2022-11-24T00:26:31.934Z,5.90
2022-11-24T00:29:05.674Z,5.90
2022-11-24T00:31:41.521Z,5.90
2022-11-24T00:34:12.949Z,5.90
2022-11-24T00:36:41.415Z,5.90
2022-11-24T00:39:15.297Z,5.90
2022-11-24T00:41:43.317Z,5.90
2022-11-24T00:44:10.407Z,5.90
2022-11-24T00:46:37.639Z,5.90
2022-11-24T00:49:05.441Z,5.90
2022-11-24T00:51:33.533Z,5.90
2022-11-24T00:54:02.067Z,5.90
2022-11-24T00:56:30.544Z,5.90
2022-11-24T00:58:58.178Z,5.90
2022-11-24T01:01:28.753Z,5.90
2022-11-24T01:03:56.723Z,5.90
2022-11-24T01:06:29.046Z,5.90
2022-11-24T01:08:57.834Z,5.90
2022-11-24T01:11:50.740Z,5.90
2022-11-24T01:14:18.795Z,5.90
2022-11-24T01:16:46.037Z,5.90
2022-11-24T01:19:13.107Z,5.90
2022-11-24T01:21:40.537Z,5.90
2022-11-24T01:24:07.681Z,5.90
2022-11-24T01:26:34.766Z,5.90
2022-11-24T01:29:01.910Z,5.90
2022-11-24T01:31:29.367Z,5.90
2022-11-24T01:33:56.457Z,5.90
2022-11-24T01:36:23.906Z,5.90
2022-11-24T01:38:52.054Z,5.90
2022-11-24T01:41:23.314Z,5.90
2022-11-24T01:43:52.705Z,5.90
2022-11-24T01:46:44.154Z,5.90
2022-11-24T01:49:25.130Z,5.90
2022-11-24T01:52:04.123Z,5.90
2022-11-24T01:54:40.022Z,5.90
2022-11-24T01:57:23.509Z,5.90
2022-11-24T01:59:56.053Z,5.90
2022-11-24T02:02:25.008Z,5.90
2022-11-24T02:04:53.006Z,5.90
2022-11-24T02:07:20.331Z,5.90
2022-11-24T02:09:55.790Z,5.90
2022-11-24T02:12:25.216Z,5.90
2022-11-24T02:14:53.971Z,5.90
2022-11-24T02:17:22.171Z,5.90
2022-11-24T02:20:05.874Z,5.90
2022-11-24T02:23:38.216Z,5.90
2022-11-24T02:26:11.988Z,5.90
2022-11-24T02:28:39.278Z,5.90
2022-11-24T02:31:06.649Z,5.90
2022-11-24T02:33:35.617Z,5.90
2022-11-24T02:36:02.857Z,5.90
2022-11-24T02:38:35.207Z,5.90
2022-11-24T02:41:12.811Z,5.90
2022-11-24T02:43:45.260Z,5.80
2022-11-24T02:46:12.414Z,5.80
2022-11-24T02:48:39.876Z,5.80
2022-11-24T02:51:07.003Z,5.80
2022-11-24T02:53:34.385Z,5.90
2022-11-24T02:56:01.470Z,5.90
2022-11-24T02:58:28.599Z,5.90
2022-11-24T03:00:59.890Z,5.90
2022-11-24T03:03:27.777Z,5.80
2022-11-24T03:05:55.027Z,5.90
2022-11-24T03:08:22.122Z,5.90
2022-11-24T03:10:49.398Z,5.80
2022-11-24T03:13:16.537Z,5.80
2022-11-24T03:15:43.683Z,5.90
2022-11-24T03:18:10.824Z,5.90
2022-11-24T03:20:38.035Z,5.90
2022-11-24T03:23:05.193Z,5.80
2022-11-24T03:25:32.373Z,5.80
2022-11-24T03:27:59.502Z,5.80
2022-11-24T03:30:26.913Z,5.80
2022-11-24T03:32:54.114Z,5.80
2022-11-24T03:35:22.172Z,5.80
2022-11-24T03:37:49.376Z,5.80
2022-11-24T03:40:18.104Z,5.80
2022-11-24T03:42:45.237Z,5.80
2022-11-24T03:45:37.957Z,5.80
2022-11-24T03:47:59.401Z,5.90
2022-11-24T03:50:26.499Z,5.90
2022-11-24T03:52:53.724Z,5.90
2022-11-24T03:55:20.864Z,5.90
2022-11-24T03:57:48.004Z,5.90
2022-11-24T04:00:15.856Z,5.90
2022-11-24T04:02:42.960Z,5.90
2022-11-24T04:05:10.512Z,5.90
2022-11-24T04:07:37.835Z,5.90
2022-11-24T04:10:05.623Z,5.90
2022-11-24T04:12:45.003Z,5.90
2022-11-24T04:15:18.518Z,5.80
2022-11-24T04:17:48.468Z,5.80
2022-11-24T04:20:16.470Z,5.80
2022-11-24T04:22:44.173Z,5.70
2022-11-24T04:25:12.028Z,5.70
2022-11-24T04:27:39.401Z,5.70
2022-11-24T04:30:07.871Z,5.70
2022-11-24T04:32:35.814Z,5.70
2022-11-24T04:35:04.038Z,5.60
2022-11-24T04:37:31.126Z,5.60
2022-11-24T04:39:58.374Z,5.50
2022-11-24T04:42:25.421Z,5.50
2022-11-24T04:44:52.697Z,5.50
2022-11-24T04:47:24.632Z,5.40
2022-11-24T04:49:52.313Z,5.40
2022-11-24T04:52:22.059Z,5.40
2022-11-24T04:54:49.675Z,5.40
2022-11-24T04:57:23.244Z,5.40
2022-11-24T04:59:52.655Z,5.30
2022-11-24T05:02:24.303Z,5.30
2022-11-24T05:04:51.604Z,5.30
2022-11-24T05:07:22.395Z,5.30
2022-11-24T05:10:08.393Z,5.20
2022-11-24T05:12:35.498Z,5.20
2022-11-24T05:15:04.834Z,5.20
2022-11-24T05:17:34.745Z,5.20
2022-11-24T05:20:02.637Z,5.30
2022-11-24T05:22:33.218Z,5.20
2022-11-24T05:25:00.261Z,5.20
2022-11-24T05:27:27.437Z,5.20
2022-11-24T05:29:54.602Z,5.20
2022-11-24T05:32:21.693Z,5.20
2022-11-24T05:34:48.868Z,5.20
2022-11-24T05:37:16.593Z,5.20
2022-11-24T05:39:43.608Z,5.20
2022-11-24T05:42:29.016Z,5.20
2022-11-24T05:44:57.432Z,5.20
2022-11-24T05:47:24.758Z,5.20
2022-11-24T05:49:52.059Z,5.10
2022-11-24T05:52:19.148Z,5.10
2022-11-24T05:54:46.182Z,5.10
2022-11-24T05:57:13.276Z,5.10
2022-11-24T05:59:40.735Z,5.10
2022-11-24T06:02:08.001Z,5.10
2022-11-24T06:04:35.302Z,5.00
2022-11-24T06:07:03.423Z,5.10
2022-11-24T06:09:30.484Z,5.10
2022-11-24T06:11:57.678Z,5.10
2022-11-24T06:14:24.837Z,5.00
2022-11-24T06:16:52.013Z,5.00
2022-11-24T06:19:19.233Z,5.10
2022-11-24T06:21:46.385Z,5.10
2022-11-24T06:24:14.744Z,5.10
2022-11-24T06:26:42.377Z,5.10
2022-11-24T06:29:09.498Z,5.10
2022-11-24T06:31:36.633Z,5.20
2022-11-24T06:34:11.608Z,5.20
2022-11-24T06:36:39.465Z,5.20
2022-11-24T06:39:07.434Z,5.20
2022-11-24T06:41:35.371Z,5.30
2022-11-24T06:44:04.599Z,5.30
2022-11-24T06:46:31.938Z,5.30
2022-11-24T06:48:59.985Z,5.40
2022-11-24T06:51:27.812Z,5.40
2022-11-24T06:53:55.417Z,5.50
2022-11-24T06:56:22.919Z,5.40
2022-11-24T06:58:52.904Z,5.50
2022-11-24T07:01:26.374Z,5.50
2022-11-24T07:03:55.907Z,5.50
2022-11-24T07:06:25.588Z,5.60
2022-11-24T07:08:53.338Z,5.60
2022-11-24T07:11:23.774Z,5.60
2022-11-24T07:13:59.629Z,5.60
2022-11-24T07:16:28.254Z,5.70
2022-11-24T07:18:55.882Z,5.70
2022-11-24T07:21:24.810Z,5.80
2022-11-24T07:23:57.013Z,5.80
2022-11-24T07:26:24.368Z,5.90
2022-11-24T07:28:51.945Z,5.90
2022-11-24T07:31:24.837Z,6.00
2022-11-24T07:33:55.127Z,6.00
2022-11-24T07:36:23.429Z,6.10
2022-11-24T07:38:51.069Z,6.10
2022-11-24T07:41:19.784Z,6.10
2022-11-24T07:43:48.117Z,6.10
2022-11-24T07:46:17.952Z,6.20
2022-11-24T07:48:46.144Z,6.20
2022-11-24T07:51:13.465Z,6.30
2022-11-24T07:53:40.791Z,6.40
2022-11-24T07:56:09.136Z,6.40
2022-11-24T07:58:37.793Z,6.40
2022-11-24T08:01:17.328Z,6.40
2022-11-24T08:03:45.909Z,6.50
2022-11-24T08:06:38.149Z,6.40
2022-11-24T08:09:01.619Z,6.50
2022-11-24T08:11:31.407Z,6.50
2022-11-24T08:13:58.727Z,6.50
2022-11-24T08:16:25.944Z,6.60
2022-11-24T08:18:55.947Z,6.60
2022-11-24T08:21:24.003Z,6.60
2022-11-24T08:23:57.692Z,6.70
2022-11-24T08:26:25.991Z,6.70
2022-11-24T08:28:57.005Z,6.70
2022-11-24T08:31:27.389Z,6.80
2022-11-24T08:33:56.243Z,6.80
2022-11-24T08:36:26.328Z,6.90
2022-11-24T08:38:58.673Z,6.90
2022-11-24T08:41:27.541Z,7.00
2022-11-24T08:43:55.417Z,6.90
2022-11-24T08:46:23.930Z,6.90
2022-11-24T08:48:55.328Z,6.90
2022-11-24T08:51:26.233Z,6.90
2022-11-24T08:53:58.672Z,6.90
2022-11-24T08:56:31.533Z,6.90
2022-11-24T08:58:59.607Z,6.90
2022-11-24T09:01:28.140Z,6.90
2022-11-24T09:03:55.726Z,6.90
2022-11-24T09:06:31.051Z,6.90
2022-11-24T09:08:59.555Z,6.90
2022-11-24T09:11:28.016Z,6.90
2022-11-24T09:13:55.737Z,6.90
2022-11-24T09:16:26.803Z,6.90
2022-11-24T09:19:03.860Z,6.90
2022-11-24T09:21:36.864Z,6.90
2022-11-24T09:24:04.648Z,6.90
2022-11-24T09:26:35.456Z,6.90
2022-11-24T09:29:05.076Z,6.90
2022-11-24T09:31:35.781Z,6.90
2022-11-24T09:34:07.195Z,6.90
2022-11-24T09:36:35.293Z,6.90
2022-11-24T09:39:02.537Z,6.90
2022-11-24T09:41:57.796Z,7.00
2022-11-24T09:44:56.102Z,7.00
2022-11-24T09:47:51.218Z,7.00
2022-11-24T09:50:35.022Z,7.00
2022-11-24T09:53:34.683Z,7.10
2022-11-24T09:56:27.662Z,7.10
2022-11-24T09:59:05.248Z,7.20
2022-11-24T10:01:39.701Z,7.20
2022-11-24T10:04:39.441Z,7.20
2022-11-24T10:07:06.649Z,7.30
2022-11-24T10:10:14.143Z,7.30
2022-11-24T10:13:21.861Z,7.40
2022-11-24T10:16:25.591Z,7.40
2022-11-24T10:19:13.195Z,7.40
2022-11-24T10:22:03.418Z,7.30
2022-11-24T10:24:37.507Z,7.40
2022-11-24T10:27:48.231Z,7.40
2022-11-24T10:30:23.886Z,7.40
2022-11-24T10:33:07.668Z,7.50
2022-11-24T10:36:03.186Z,7.50
2022-11-24T10:38:47.078Z,7.50
2022-11-24T10:41:24.047Z,7.60
2022-11-24T10:43:52.609Z,7.60
2022-11-24T10:46:27.605Z,7.70
2022-11-24T10:49:02.205Z,7.70
2022-11-24T10:51:56.530Z,7.70
2022-11-24T10:54:24.490Z,7.70
2022-11-24T10:56:54.388Z,7.70
2022-11-24T10:59:27.767Z,7.60
2022-11-24T11:01:55.577Z,7.60
2022-11-24T11:04:32.045Z,7.70
2022-11-24T11:07:20.511Z,7.70
2022-11-24T11:09:48.548Z,7.60
2022-11-24T11:12:45.721Z,7.70
2022-11-24T11:15:31.557Z,7.70
2022-11-24T11:18:01.124Z,7.70
2022-11-24T11:20:35.307Z,7.70
2022-11-24T11:23:16.390Z,7.60
2022-11-24T11:25:43.936Z,7.60
2022-11-24T11:28:30.196Z,7.60
2022-11-24T11:31:20.967Z,7.60
2022-11-24T11:34:10.629Z,7.60
2022-11-24T11:36:53.686Z,7.50
2022-11-24T11:39:34.956Z,7.50
2022-11-24T11:43:00.648Z,7.50
2022-11-24T11:45:28.013Z,7.50
2022-11-24T11:48:01.175Z,7.50
2022-11-24T11:51:14.905Z,7.50
2022-11-24T11:54:02.471Z,7.50
2022-11-24T11:56:37.478Z,7.50
2022-11-24T11:59:45.924Z,7.50
2022-11-24T12:03:04.972Z,7.50
2022-11-24T12:06:07.505Z,7.50
2022-11-24T12:09:36.525Z,7.50
2022-11-24T12:13:04.284Z,7.50
2022-11-24T12:15:43.991Z,7.50
2022-11-24T12:18:55.259Z,7.40
2022-11-24T12:22:06.546Z,7.40
2022-11-24T12:24:55.390Z,7.40
2022-11-24T12:28:05.326Z,7.40
2022-11-24T12:30:49.069Z,7.40
2022-11-24T12:33:51.592Z,7.40
2022-11-24T12:36:50.004Z,7.40
2022-11-24T12:39:34.586Z,7.40
2022-11-24T12:42:23.879Z,7.40
2022-11-24T12:45:09.124Z,7.40
2022-11-24T12:48:14.127Z,7.40
2022-11-24T12:50:44.272Z,7.30
2022-11-24T12:53:24.195Z,7.40
2022-11-24T12:55:52.372Z,7.30
2022-11-24T12:58:45.769Z,7.40
2022-11-24T13:01:22.005Z,7.40
2022-11-24T13:04:12.821Z,7.40
2022-11-24T13:06:52.595Z,7.40
2022-11-24T13:09:20.470Z,7.40
2022-11-24T13:12:14.536Z,7.40
2022-11-24T13:14:48.083Z,7.40
2022-11-24T13:17:52.398Z,7.40
2022-11-24T13:20:24.213Z,7.30
2022-11-24T13:22:54.570Z,7.30
2022-11-24T13:25:28.713Z,7.30
2022-11-24T13:28:06.884Z,7.40
2022-11-24T13:30:33.861Z,7.30
2022-11-24T13:33:16.533Z,7.40
2022-11-24T13:36:25.259Z,7.30
2022-11-24T13:38:53.921Z,7.30
2022-11-24T13:41:33.250Z,7.30
2022-11-24T13:44:15.752Z,7.30
2022-11-24T13:47:32.476Z,7.30
2022-11-24T13:50:01.390Z,7.30
2022-11-24T13:52:47.486Z,7.30
2022-11-24T13:55:15.745Z,7.30
2022-11-24T13:57:46.806Z,7.30
2022-11-24T14:00:27.616Z,7.30
2022-11-24T14:03:30.122Z,7.30
2022-11-24T14:05:58.760Z,7.30
2022-11-24T14:08:36.076Z,7.20
2022-11-24T14:11:11.364Z,7.30
2022-11-24T14:13:38.467Z,7.20
2022-11-24T14:16:19.391Z,7.20
2022-11-24T14:18:50.175Z,7.30
2022-11-24T14:21:42.584Z,7.20
2022-11-24T14:24:27.037Z,7.20
2022-11-24T14:26:56.273Z,7.20
2022-11-24T14:29:25.262Z,7.20
2022-11-24T14:31:58.660Z,7.20
2022-11-24T14:34:29.749Z,7.20
2022-11-24T14:36:58.460Z,7.20
2022-11-24T14:39:27.182Z,7.20
2022-11-24T14:42:16.418Z,7.10
2022-11-24T14:44:48.384Z,7.20
2022-11-24T14:47:43.536Z,7.10
2022-11-24T14:50:16.563Z,7.10
2022-11-24T14:52:56.661Z,7.10
2022-11-24T14:55:31.093Z,7.10
2022-11-24T14:57:59.791Z,7.10
2022-11-24T15:00:33.856Z,7.10
2022-11-24T15:03:00.813Z,7.10
2022-11-24T15:05:59.541Z,7.10
2022-11-24T15:08:42.771Z,7.10
2022-11-24T15:11:09.936Z,7.10
2022-11-24T15:13:40.715Z,7.10
2022-11-24T15:16:20.002Z,7.10
2022-11-24T15:19:02.963Z,7.10
2022-11-24T15:21:37.131Z,7.10
2022-11-24T15:24:19.362Z,7.10
2022-11-24T15:26:46.930Z,7.10
2022-11-24T15:29:14.050Z,7.10
2022-11-24T15:31:45.243Z,7.10
2022-11-24T15:34:15.487Z,7.10
2022-11-24T15:36:42.562Z,7.10
2022-11-24T15:39:09.639Z,7.10
2022-11-24T15:41:36.783Z,7.10
2022-11-24T15:44:03.999Z,7.10
2022-11-24T15:46:38.142Z,7.10
2022-11-24T15:49:07.155Z,7.10
2022-11-24T15:51:35.606Z,7.10
2022-11-24T15:54:02.786Z,7.10
2022-11-24T15:56:35.674Z,7.10
2022-11-24T15:59:03.776Z,7.10
2022-11-24T16:01:33.263Z,7.20
2022-11-24T16:04:02.067Z,7.10
2022-11-24T16:06:29.316Z,7.20
2022-11-24T16:08:58.216Z,7.20
2022-11-24T16:11:25.980Z,7.10
2022-11-24T16:13:54.337Z,7.10
2022-11-24T16:16:24.856Z,7.10
2022-11-24T16:18:52.586Z,7.10
2022-11-24T16:21:20.358Z,7.10
2022-11-24T16:23:48.991Z,7.10
2022-11-24T16:26:16.358Z,7.10
2022-11-24T16:28:45.580Z,7.10
2022-11-24T16:31:15.851Z,7.20
2022-11-24T16:33:45.454Z,7.20
2022-11-24T16:36:14.669Z,7.10
2022-11-24T16:38:42.173Z,7.10
2022-11-24T16:41:10.719Z,7.10
2022-11-24T16:43:38.769Z,7.10
2022-11-24T16:46:16.209Z,7.10
2022-11-24T16:48:45.570Z,7.10
2022-11-24T16:51:14.824Z,7.10
2022-11-24T16:53:43.237Z,7.10
2022-11-24T16:56:11.413Z,7.10
2022-11-24T16:58:41.259Z,7.20
2022-11-24T17:01:13.414Z,7.20
2022-11-24T17:03:41.520Z,7.20
2022-11-24T17:06:13.703Z,7.20
2022-11-24T17:08:42.372Z,7.20
2022-11-24T17:11:22.206Z,7.20
2022-11-24T17:13:50.818Z,7.20
2022-11-24T17:16:21.373Z,7.20
2022-11-24T17:18:49.443Z,7.20
2022-11-24T17:21:22.295Z,7.10
2022-11-24T17:23:55.499Z,7.20
2022-11-24T17:26:23.778Z,7.20
2022-11-24T17:28:51.650Z,7.20
2022-11-24T17:31:28.524Z,7.20
2022-11-24T17:33:58.529Z,7.20
2022-11-24T17:36:27.157Z,7.10
2022-11-24T17:38:55.154Z,7.20
2022-11-24T17:41:23.913Z,7.20
2022-11-24T17:43:55.938Z,7.20
2022-11-24T17:46:28.730Z,7.20
2022-11-24T17:48:57.475Z,7.20
2022-11-24T17:51:28.050Z,7.30
2022-11-24T17:53:58.540Z,7.30
2022-11-24T17:56:28.332Z,7.20
2022-11-24T17:58:59.976Z,7.20
2022-11-24T18:01:30.429Z,7.20
2022-11-24T18:03:59.727Z,7.20
2022-11-24T18:06:29.241Z,7.20
2022-11-24T18:08:58.180Z,7.20
2022-11-24T18:11:32.648Z,7.20
2022-11-24T18:14:04.375Z,7.20
2022-11-24T18:16:34.696Z,7.20
2022-11-24T18:19:09.804Z,7.20
2022-11-24T18:21:45.411Z,7.20
2022-11-24T18:24:17.486Z,7.20
2022-11-24T18:26:50.706Z,7.20
2022-11-24T18:29:18.933Z,7.20
2022-11-24T18:31:47.312Z,7.20
2022-11-24T18:34:15.121Z,7.20
2022-11-24T18:36:45.622Z,7.20
2022-11-24T18:39:18.393Z,7.20
2022-11-24T18:41:48.285Z,7.20
2022-11-24T18:44:16.380Z,7.30
2022-11-24T18:46:44.936Z,7.30
2022-11-24T18:49:12.897Z,7.30
2022-11-24T18:51:41.052Z,7.30
2022-11-24T18:54:09.142Z,7.30
2022-11-24T18:56:36.957Z,7.30
2022-11-24T18:59:04.936Z,7.30
2022-11-24T19:01:32.991Z,7.30
2022-11-24T19:04:03.604Z,7.20
2022-11-24T19:06:36.051Z,7.20
2022-11-24T19:09:12.535Z,7.20
2022-11-24T19:11:44.675Z,7.20
2022-11-24T19:14:17.870Z,7.20
2022-11-24T19:16:48.594Z,7.20
2022-11-24T19:19:17.713Z,7.30
2022-11-24T19:21:49.680Z,7.30
2022-11-24T19:24:18.027Z,7.30
2022-11-24T19:26:47.032Z,7.30
2022-11-24T19:29:14.847Z,7.20
2022-11-24T19:31:44.501Z,7.30
2022-11-24T19:34:12.597Z,7.30
2022-11-24T19:36:46.473Z,7.30
2022-11-24T19:39:18.662Z,7.30
2022-11-24T19:41:47.076Z,7.30
2022-11-24T19:44:17.122Z,7.30
2022-11-24T19:46:44.973Z,7.30
2022-11-24T19:49:13.363Z,7.30
2022-11-24T19:51:41.540Z,7.30
2022-11-24T19:54:15.081Z,7.30
2022-11-24T19:56:43.533Z,7.30
2022-11-24T19:59:16.647Z,7.30
2022-11-24T20:01:46.346Z,7.30
2022-11-24T20:04:16.112Z,7.30
2022-11-24T20:06:46.304Z,7.40
2022-11-24T20:09:17.559Z,7.40
2022-11-24T20:11:45.784Z,7.30
2022-11-24T20:14:17.954Z,7.40
2022-11-24T20:16:48.195Z,7.40
2022-11-24T20:19:23.571Z,7.40
2022-11-24T20:21:54.942Z,7.50
2022-11-24T20:24:25.493Z,7.40
2022-11-24T20:26:58.726Z,7.50
2022-11-24T20:29:32.778Z,7.50
2022-11-24T20:32:09.402Z,7.50
2022-11-24T20:34:37.702Z,7.50
2022-11-24T20:37:07.790Z,7.50
2022-11-24T20:39:36.976Z,7.50
2022-11-24T20:42:05.593Z,7.50
2022-11-24T20:44:34.110Z,7.50
2022-11-24T20:47:03.710Z,7.50
2022-11-24T20:49:31.861Z,7.50
2022-11-24T20:52:02.265Z,7.50
2022-11-24T20:54:30.522Z,7.50
2022-11-24T20:56:58.798Z,7.60
2022-11-24T20:59:26.829Z,7.50
2022-11-24T21:01:59.299Z,7.50
2022-11-24T21:04:28.205Z,7.50
2022-11-24T21:06:56.284Z,7.50
2022-11-24T21:09:24.957Z,7.50
2022-11-24T21:11:52.468Z,7.60
2022-11-24T21:14:21.448Z,7.50
2022-11-24T21:16:48.715Z,7.50
2022-11-24T21:19:19.011Z,7.50
2022-11-24T21:21:47.746Z,7.50
2022-11-24T21:24:21.658Z,7.50
2022-11-24T21:26:51.884Z,7.50
2022-11-24T21:29:22.197Z,7.50
2022-11-24T21:31:49.621Z,7.50
2022-11-24T21:34:18.971Z,7.50
2022-11-24T21:36:46.436Z,7.50
2022-11-24T21:39:15.320Z,7.50
2022-11-24T21:41:43.262Z,7.50
2022-11-24T21:44:14.965Z,7.50
2022-11-24T21:46:49.530Z,7.50
2022-11-24T21:49:21.329Z,7.50
2022-11-24T21:51:49.883Z,7.40
2022-11-24T21:54:16.924Z,7.40
2022-11-24T21:56:50.533Z,7.40
2022-11-24T21:59:19.559Z,7.40
2022-11-24T22:01:46.679Z,7.40
2022-11-24T22:04:13.830Z,7.30
2022-11-24T22:06:40.841Z,7.30
2022-11-24T22:09:07.902Z,7.30
2022-11-24T22:11:35.014Z,7.40
2022-11-24T22:14:02.161Z,7.30
2022-11-24T22:16:29.516Z,7.30
2022-11-24T22:18:56.724Z,7.40
2022-11-24T22:21:29.923Z,7.30
2022-11-24T22:23:57.451Z,7.30
2022-11-24T22:26:26.583Z,7.30
2022-11-24T22:28:55.004Z,7.30
2022-11-24T22:31:31.949Z,7.30
2022-11-24T22:34:00.604Z,7.30
2022-11-24T22:36:30.163Z,7.40
2022-11-24T22:39:03.296Z,7.40
2022-11-24T22:41:33.793Z,7.40
2022-11-24T22:44:00.949Z,7.40
2022-11-24T22:46:30.387Z,7.30
2022-11-24T22:49:00.619Z,7.30
2022-11-24T22:51:34.650Z,7.30
2022-11-24T22:54:04.435Z,7.30
2022-11-24T22:56:33.682Z,7.30
2022-11-24T22:59:02.403Z,7.30
2022-11-24T23:01:31.732Z,7.30
2022-11-24T23:03:59.336Z,7.30
2022-11-24T23:06:32.544Z,7.30
2022-11-24T23:09:01.666Z,7.30
2022-11-24T23:11:38.111Z,7.30
2022-11-24T23:14:08.852Z,7.20
2022-11-24T23:16:35.996Z,7.20
2022-11-24T23:19:04.028Z,7.20
2022-11-24T23:21:34.091Z,7.20
2022-11-24T23:24:04.212Z,7.10
2022-11-24T23:26:38.281Z,7.10
2022-11-24T23:29:10.126Z,7.00
2022-11-24T23:31:39.950Z,6.90
2022-11-24T23:34:07.440Z,6.90
2022-11-24T23:36:34.745Z,6.90
2022-11-24T23:39:08.666Z,6.80
2022-11-24T23:41:35.988Z,6.80
2022-11-24T23:44:03.564Z,6.80
2022-11-24T23:46:31.091Z,6.80
2022-11-24T23:48:58.817Z,6.80
2022-11-24T23:51:29.214Z,6.70
2022-11-24T23:56:41.754Z,6.70
2022-11-24T23:59:12.091Z,6.70
